createdAt,value
2019-03-02T00:01:29.944Z,73.18
2019-03-02T00:03:59.107Z,73.07
2019-03-02T00:06:28.651Z,73.15
2019-03-02T00:08:59.928Z,73.17
2019-03-02T00:11:29.330Z,73.22
2019-03-02T00:13:58.521Z,73.21
2019-03-02T00:16:27.756Z,73.08
2019-03-02T00:18:56.897Z,73.05
2019-03-02T00:21:27.784Z,72.94
2019-03-02T00:23:57.050Z,72.93
2019-03-02T00:26:26.239Z,72.95
2019-03-02T00:28:56.148Z,72.67
2019-03-02T00:31:25.361Z,72.80
2019-03-02T00:33:56.677Z,72.79
2019-03-02T00:36:26.168Z,72.64
2019-03-02T00:38:55.669Z,72.69
2019-03-02T00:41:25.197Z,72.53
2019-03-02T00:43:54.349Z,72.56
2019-03-02T00:46:24.090Z,72.56
2019-03-02T00:48:54.501Z,72.50
2019-03-02T00:51:24.173Z,72.31
2019-03-02T00:53:53.305Z,72.13
2019-03-02T00:56:22.739Z,71.71
2019-03-02T00:58:51.929Z,71.58
2019-03-02T01:01:21.833Z,71.58
2019-03-02T01:03:51.510Z,71.79
2019-03-02T01:06:20.787Z,71.65
2019-03-02T01:08:49.997Z,71.58
2019-03-02T01:11:19.153Z,71.00
2019-03-02T01:13:48.970Z,70.99
2019-03-02T01:16:20.053Z,70.91
2019-03-02T01:18:48.999Z,70.92
2019-03-02T01:21:18.449Z,70.58
2019-03-02T01:23:47.627Z,70.28
2019-03-02T01:26:16.891Z,70.05
2019-03-02T01:28:46.420Z,70.09
2019-03-02T01:31:15.598Z,70.18
2019-03-02T01:33:44.776Z,70.08
2019-03-02T01:36:14.302Z,70.26
2019-03-02T01:38:43.455Z,70.07
2019-03-02T01:41:14.066Z,69.95
2019-03-02T01:43:44.144Z,69.99
2019-03-02T01:46:13.932Z,70.01
2019-03-02T01:48:43.464Z,70.13
2019-03-02T01:51:12.989Z,70.08
2019-03-02T01:53:45.765Z,69.95
2019-03-02T01:56:13.451Z,69.90
2019-03-02T01:58:42.613Z,70.13
2019-03-02T02:01:11.771Z,70.22
2019-03-02T02:03:43.612Z,70.24
2019-03-02T02:06:12.281Z,70.02
2019-03-02T02:08:42.305Z,70.02
2019-03-02T02:11:14.589Z,70.08
2019-03-02T02:13:42.876Z,70.01
2019-03-02T02:16:12.287Z,70.13
2019-03-02T02:18:41.544Z,69.89
2019-03-02T02:21:11.605Z,69.83
2019-03-02T02:23:41.682Z,69.66
2019-03-02T02:26:11.516Z,69.52
2019-03-02T02:28:41.636Z,69.27
2019-03-02T02:31:11.165Z,69.19
2019-03-02T02:33:43.179Z,69.27
2019-03-02T02:36:14.255Z,69.04
2019-03-02T02:38:43.044Z,69.13
2019-03-02T02:41:12.208Z,68.93
2019-03-02T02:43:42.469Z,68.78
2019-03-02T02:46:11.725Z,68.70
2019-03-02T02:48:41.594Z,68.71
2019-03-02T02:51:12.364Z,68.92
2019-03-02T02:53:45.156Z,68.90
2019-03-02T02:56:14.218Z,68.76
2019-03-02T02:58:44.697Z,68.61
2019-03-02T03:01:13.935Z,68.52
2019-03-02T03:03:43.391Z,68.43
2019-03-02T03:06:12.528Z,67.97
2019-03-02T03:08:46.141Z,67.82
2019-03-02T03:11:15.500Z,67.87
2019-03-02T03:13:44.966Z,68.25
2019-03-02T03:16:16.580Z,68.58
2019-03-02T03:18:47.179Z,68.60
2019-03-02T03:21:16.522Z,68.36
2019-03-02T03:23:45.790Z,67.95
2019-03-02T03:26:14.941Z,68.25
2019-03-02T03:28:44.852Z,68.52
2019-03-02T03:31:22.163Z,68.55
2019-03-02T03:33:47.181Z,68.74
2019-03-02T03:36:16.644Z,69.03
2019-03-02T03:38:45.811Z,69.35
2019-03-02T03:41:14.994Z,69.37
2019-03-02T03:43:44.404Z,69.50
2019-03-02T03:46:17.803Z,69.75
2019-03-02T03:48:45.336Z,69.84
2019-03-02T03:51:14.895Z,69.90
2019-03-02T03:53:44.079Z,69.89
2019-03-02T03:56:13.816Z,69.95
2019-03-02T03:58:42.968Z,70.03
2019-03-02T04:01:16.818Z,70.18
2019-03-02T04:03:47.212Z,69.94
2019-03-02T04:06:14.093Z,70.18
2019-03-02T04:08:43.935Z,70.14
2019-03-02T04:11:13.517Z,70.28
2019-03-02T04:13:44.918Z,70.59
2019-03-02T04:16:16.333Z,71.03
2019-03-02T04:19:13.239Z,71.08
2019-03-02T04:21:44.790Z,71.07
2019-03-02T04:24:14.025Z,71.03
2019-03-02T04:26:43.806Z,71.07
2019-03-02T04:29:12.987Z,71.14
2019-03-02T04:31:43.866Z,71.22
2019-03-02T04:34:20.173Z,71.22
2019-03-02T04:36:47.307Z,71.20
2019-03-02T04:39:15.126Z,71.18
2019-03-02T04:41:44.357Z,71.24
2019-03-02T04:44:14.254Z,71.26
2019-03-02T04:46:43.465Z,71.10
2019-03-02T04:49:14.616Z,70.84
2019-03-02T04:51:44.308Z,70.91
2019-03-02T04:54:13.823Z,70.92
2019-03-02T04:56:43.008Z,70.60
2019-03-02T04:59:14.468Z,70.48
2019-03-02T05:01:46.256Z,70.67
2019-03-02T05:04:15.354Z,70.63
2019-03-02T05:06:44.637Z,70.52
2019-03-02T05:09:17.280Z,70.57
2019-03-02T05:11:45.704Z,70.39
2019-03-02T05:14:15.206Z,70.30
2019-03-02T05:16:44.942Z,70.25
2019-03-02T05:19:14.426Z,70.33
2019-03-02T05:21:45.454Z,70.40
2019-03-02T05:24:14.607Z,70.06
2019-03-02T05:26:44.144Z,70.08
2019-03-02T05:29:14.795Z,69.99
2019-03-02T05:31:44.235Z,70.31
2019-03-02T05:34:13.440Z,70.27
2019-03-02T05:36:42.999Z,70.08
2019-03-02T05:39:13.923Z,70.55
2019-03-02T05:41:43.763Z,70.45
2019-03-02T05:44:13.270Z,70.51
2019-03-02T05:46:42.414Z,70.78
2019-03-02T05:49:11.969Z,70.82
2019-03-02T05:51:42.761Z,70.59
2019-03-02T05:54:12.658Z,70.34
2019-03-02T05:56:41.850Z,70.77
2019-03-02T05:59:11.078Z,70.71
2019-03-02T06:01:41.186Z,70.77
2019-03-02T06:04:10.358Z,70.74
2019-03-02T06:06:39.863Z,70.85
2019-03-02T06:09:13.933Z,70.75
2019-03-02T06:11:42.597Z,70.75
2019-03-02T06:14:12.026Z,71.13
2019-03-02T06:16:41.221Z,71.18
2019-03-02T06:19:10.755Z,71.41
2019-03-02T06:21:42.785Z,71.65
2019-03-02T06:24:10.857Z,71.72
2019-03-02T06:26:40.117Z,72.15
2019-03-02T06:29:09.591Z,72.53
2019-03-02T06:31:39.427Z,73.49
2019-03-02T06:34:09.064Z,74.51
2019-03-02T06:36:40.891Z,75.22
2019-03-02T06:39:10.264Z,75.47
2019-03-02T06:41:39.462Z,75.44
2019-03-02T06:44:08.676Z,75.41
2019-03-02T06:46:37.918Z,75.27
2019-03-02T06:49:07.693Z,74.98
2019-03-02T06:51:36.804Z,74.91
2019-03-02T06:54:08.953Z,74.76
2019-03-02T06:56:39.427Z,74.59
2019-03-02T06:59:07.983Z,74.47
2019-03-02T07:01:37.407Z,74.26
2019-03-02T07:04:06.991Z,73.64
2019-03-02T07:06:36.189Z,72.71
2019-03-02T07:09:09.499Z,72.29
2019-03-02T07:11:38.045Z,71.48
2019-03-02T07:14:07.955Z,71.37
2019-03-02T07:16:37.507Z,71.23
2019-03-02T07:19:44.076Z,71.16
2019-03-02T07:22:16.935Z,70.99
2019-03-02T07:24:46.874Z,70.71
2019-03-02T07:27:16.169Z,70.67
2019-03-02T07:29:45.779Z,70.71
2019-03-02T07:32:15.551Z,70.92
2019-03-02T07:34:45.484Z,70.61
2019-03-02T07:37:14.696Z,70.52
2019-03-02T07:39:44.191Z,70.91
2019-03-02T07:42:13.513Z,70.80
2019-03-02T07:44:43.115Z,70.95
2019-03-02T07:47:12.310Z,70.94
2019-03-02T07:49:41.875Z,70.97
2019-03-02T07:52:13.723Z,70.90
2019-03-02T07:54:43.362Z,70.71
2019-03-02T07:57:13.017Z,70.67
2019-03-02T07:59:42.506Z,70.62
2019-03-02T08:02:12.034Z,70.58
2019-03-02T08:04:41.505Z,70.87
2019-03-02T08:07:10.747Z,70.81
2019-03-02T08:09:40.269Z,70.83
2019-03-02T08:12:09.733Z,70.70
2019-03-02T08:14:39.528Z,70.57
2019-03-02T08:17:09.863Z,70.48
2019-03-02T08:19:39.971Z,70.46
2019-03-02T08:22:11.083Z,70.35
2019-03-02T08:24:43.830Z,70.44
2019-03-02T08:27:12.263Z,70.32
2019-03-02T08:29:41.819Z,70.52
2019-03-02T08:32:11.050Z,70.45
2019-03-02T08:34:42.947Z,70.29
2019-03-02T08:37:11.853Z,70.42
2019-03-02T08:39:42.832Z,70.42
2019-03-02T08:42:13.224Z,70.16
2019-03-02T08:44:42.520Z,70.48
2019-03-02T08:47:12.020Z,70.18
2019-03-02T08:49:41.815Z,70.09
2019-03-02T08:52:12.362Z,70.18
2019-03-02T08:54:41.602Z,70.20
2019-03-02T08:57:11.398Z,70.35
2019-03-02T08:59:41.586Z,70.58
2019-03-02T09:02:10.827Z,70.62
2019-03-02T09:04:40.556Z,70.51
2019-03-02T09:07:11.456Z,70.16
2019-03-02T09:09:41.315Z,70.25
2019-03-02T09:12:10.823Z,70.37
2019-03-02T09:14:40.099Z,70.33
2019-03-02T09:17:10.060Z,70.53
2019-03-02T09:19:39.218Z,70.50
2019-03-02T09:22:08.755Z,70.61
2019-03-02T09:24:37.976Z,70.57
2019-03-02T09:27:07.459Z,70.63
2019-03-02T09:29:36.675Z,70.86
2019-03-02T09:32:05.958Z,70.85
2019-03-02T09:34:36.993Z,70.82
2019-03-02T09:37:07.029Z,70.64
2019-03-02T09:39:38.187Z,70.52
2019-03-02T09:42:07.502Z,70.69
2019-03-02T09:44:37.042Z,70.65
2019-03-02T09:47:09.137Z,70.48
2019-03-02T09:49:38.298Z,70.39
2019-03-02T09:52:07.634Z,70.40
2019-03-02T09:54:36.834Z,70.30
2019-03-02T09:57:06.081Z,70.68
2019-03-02T09:59:35.603Z,70.67
2019-03-02T10:02:04.744Z,70.73
2019-03-02T10:04:35.896Z,70.61
2019-03-02T10:07:05.886Z,70.88
2019-03-02T10:09:35.452Z,70.57
2019-03-02T10:12:05.788Z,70.50
2019-03-02T10:14:35.278Z,70.32
2019-03-02T10:17:04.705Z,70.16
2019-03-02T10:19:34.274Z,70.34
2019-03-02T10:22:03.371Z,70.03
2019-03-02T10:24:33.005Z,70.01
2019-03-02T10:27:02.155Z,70.03
2019-03-02T10:29:32.555Z,70.29
2019-03-02T10:32:04.383Z,70.36
2019-03-02T10:34:33.736Z,69.74
2019-03-02T10:37:03.588Z,69.63
2019-03-02T10:39:34.227Z,68.83
2019-03-02T10:42:03.769Z,68.13
2019-03-02T10:44:33.262Z,67.82
2019-03-02T10:47:02.778Z,67.86
2019-03-02T10:49:31.943Z,67.74
2019-03-02T10:52:02.213Z,68.14
2019-03-02T10:54:31.554Z,68.32
2019-03-02T10:57:02.638Z,68.05
2019-03-02T10:59:32.186Z,68.28
2019-03-02T11:02:02.333Z,67.83
2019-03-02T11:04:41.056Z,67.92
2019-03-02T11:07:50.617Z,67.71
2019-03-02T11:10:36.227Z,67.04
2019-03-02T11:13:30.803Z,66.99
2019-03-02T11:16:13.549Z,67.42
2019-03-02T11:18:52.072Z,66.37
2019-03-02T11:21:34.798Z,65.34
2019-03-02T11:24:22.914Z,64.82
2019-03-02T11:27:13.159Z,63.88
2019-03-02T11:29:56.617Z,63.07
2019-03-02T11:32:47.504Z,62.61
2019-03-02T11:35:32.300Z,61.69
2019-03-02T11:38:13.094Z,61.24
2019-03-02T11:40:56.704Z,61.76
2019-03-02T11:44:02.315Z,61.29
2019-03-02T11:46:39.807Z,60.53
2019-03-02T11:49:29.946Z,60.13
2019-03-02T11:52:11.541Z,59.86
2019-03-02T11:54:50.596Z,58.40
2019-03-02T11:57:42.114Z,58.26
2019-03-02T12:00:37.440Z,58.29
2019-03-02T12:03:19.054Z,57.24
2019-03-02T12:06:07.092Z,56.62
2019-03-02T12:09:01.820Z,56.77
2019-03-02T12:11:50.363Z,57.21
2019-03-02T12:14:53.502Z,57.75
2019-03-02T12:17:44.378Z,57.32
2019-03-02T12:20:32.435Z,56.94
2019-03-02T12:23:19.493Z,56.86
2019-03-02T12:25:57.819Z,56.39
2019-03-02T12:28:45.855Z,56.08
2019-03-02T12:31:31.864Z,55.53
2019-03-02T12:34:19.624Z,56.62
2019-03-02T12:37:03.160Z,56.10
2019-03-02T12:39:38.333Z,55.91
2019-03-02T12:42:22.846Z,56.55
2019-03-02T12:45:13.798Z,57.08
2019-03-02T12:47:53.198Z,58.17
2019-03-02T12:50:35.600Z,58.55
2019-03-02T12:53:13.635Z,58.49
2019-03-02T12:56:01.792Z,58.38
2019-03-02T12:59:02.167Z,58.28
2019-03-02T13:01:49.348Z,58.83
2019-03-02T13:04:26.845Z,58.97
2019-03-02T13:07:21.305Z,58.64
2019-03-02T13:09:56.887Z,59.05
2019-03-02T13:13:04.039Z,58.58
2019-03-02T13:15:50.960Z,59.20
2019-03-02T13:18:38.727Z,58.79
2019-03-02T13:21:32.944Z,58.55
2019-03-02T13:24:22.493Z,57.83
2019-03-02T13:26:58.144Z,57.81
2019-03-02T13:29:55.340Z,57.64
2019-03-02T13:32:55.977Z,57.52
2019-03-02T13:35:33.511Z,57.74
2019-03-02T13:38:20.085Z,57.37
2019-03-02T13:41:11.301Z,57.20
2019-03-02T13:43:52.966Z,56.83
2019-03-02T13:46:59.777Z,57.07
2019-03-02T13:49:40.264Z,56.60
2019-03-02T13:52:31.331Z,56.73
2019-03-02T13:55:19.342Z,56.28
2019-03-02T13:58:06.993Z,56.15
2019-03-02T14:00:51.267Z,56.25
2019-03-02T14:03:36.500Z,56.49
2019-03-02T14:06:28.252Z,55.67
2019-03-02T14:09:21.519Z,55.09
2019-03-02T14:12:19.805Z,54.93
2019-03-02T14:14:59.458Z,53.68
2019-03-02T14:17:42.294Z,54.46
2019-03-02T14:20:34.741Z,54.79
2019-03-02T14:23:31.326Z,54.50
2019-03-02T14:26:19.685Z,54.46
2019-03-02T14:29:04.386Z,53.90
2019-03-02T14:31:42.226Z,54.61
2019-03-02T14:34:19.612Z,53.93
2019-03-02T14:36:59.880Z,53.73
2019-03-02T14:39:49.239Z,53.72
2019-03-02T14:42:45.730Z,54.35
2019-03-02T14:45:24.170Z,55.04
2019-03-02T14:48:13.687Z,54.98
2019-03-02T14:51:02.427Z,54.78
2019-03-02T14:53:46.027Z,53.92
2019-03-02T14:56:37.568Z,53.64
2019-03-02T14:59:24.650Z,53.99
2019-03-02T15:02:13.078Z,53.91
2019-03-02T15:05:02.042Z,52.82
2019-03-02T15:08:00.263Z,51.83
2019-03-02T15:10:44.195Z,51.80
2019-03-02T15:13:32.612Z,52.30
2019-03-02T15:16:19.734Z,52.74
2019-03-02T15:19:15.366Z,53.62
2019-03-02T15:22:04.067Z,53.48
2019-03-02T15:24:56.950Z,53.06
2019-03-02T15:27:35.977Z,53.05
2019-03-02T15:30:19.168Z,53.17
2019-03-02T15:33:15.114Z,53.75
2019-03-02T15:36:07.180Z,53.48
2019-03-02T15:38:59.069Z,53.31
2019-03-02T15:41:50.181Z,53.49
2019-03-02T15:44:37.110Z,53.60
2019-03-02T15:47:23.975Z,54.53
2019-03-02T15:50:21.490Z,55.11
2019-03-02T15:52:56.236Z,55.48
2019-03-02T15:55:56.698Z,55.41
2019-03-02T15:58:45.364Z,55.71
2019-03-02T16:01:39.618Z,55.22
2019-03-02T16:04:23.998Z,55.24
2019-03-02T16:07:11.307Z,55.38
2019-03-02T16:10:17.576Z,55.36
2019-03-02T16:13:08.764Z,55.23
2019-03-02T16:15:48.942Z,54.93
2019-03-02T16:18:31.563Z,55.17
2019-03-02T16:21:25.932Z,55.24
2019-03-02T16:24:13.669Z,55.17
2019-03-02T16:27:00.821Z,55.33
2019-03-02T16:29:42.114Z,55.67
2019-03-02T16:32:29.493Z,55.75
2019-03-02T16:35:10.400Z,55.85
2019-03-02T16:38:17.106Z,56.42
2019-03-02T16:40:58.212Z,56.54
2019-03-02T16:43:33.868Z,56.81
2019-03-02T16:46:22.053Z,57.09
2019-03-02T16:49:16.383Z,57.76
2019-03-02T16:52:06.220Z,58.85
2019-03-02T16:54:58.599Z,59.56
2019-03-02T16:57:49.916Z,60.06
2019-03-02T17:00:42.343Z,60.61
2019-03-02T17:03:29.168Z,61.01
2019-03-02T17:06:09.765Z,61.61
2019-03-02T17:09:03.786Z,62.20
2019-03-02T17:11:42.989Z,62.67
2019-03-02T17:14:29.776Z,63.04
2019-03-02T17:17:18.231Z,63.59
2019-03-02T17:19:54.240Z,63.76
2019-03-02T17:22:42.747Z,64.24
2019-03-02T17:25:32.248Z,64.54
2019-03-02T17:28:36.170Z,64.71
2019-03-02T17:31:17.296Z,64.76
2019-03-02T17:34:09.938Z,64.66
2019-03-02T17:36:45.700Z,65.13
2019-03-02T17:39:32.613Z,65.26
2019-03-02T17:42:16.822Z,65.35
2019-03-02T17:45:05.281Z,65.62
2019-03-02T17:47:52.532Z,65.81
2019-03-02T17:50:33.882Z,65.88
2019-03-02T17:53:23.086Z,66.05
2019-03-02T17:56:11.915Z,66.25
2019-03-02T17:59:04.175Z,66.57
2019-03-02T18:01:50.047Z,66.60
2019-03-02T18:04:44.106Z,67.07
2019-03-02T18:07:44.417Z,67.34
2019-03-02T18:10:22.719Z,67.97
2019-03-02T18:13:14.020Z,68.58
2019-03-02T18:16:06.513Z,69.29
2019-03-02T18:18:36.487Z,69.63
2019-03-02T18:21:05.721Z,70.22
2019-03-02T18:23:35.599Z,70.75
2019-03-02T18:26:04.911Z,70.72
2019-03-02T18:28:34.063Z,71.28
2019-03-02T18:31:03.334Z,71.51
2019-03-02T18:34:00.576Z,71.78
2019-03-02T18:36:29.751Z,72.07
2019-03-02T18:39:01.035Z,72.24
2019-03-02T18:41:30.510Z,72.47
2019-03-02T18:44:00.836Z,72.82
2019-03-02T18:46:30.193Z,72.99
2019-03-02T18:49:14.135Z,73.34
2019-03-02T18:52:04.421Z,73.83
2019-03-02T18:54:34.575Z,73.92
2019-03-02T18:57:03.930Z,74.07
2019-03-02T18:59:33.192Z,74.22
2019-03-02T19:02:05.007Z,74.47
2019-03-02T19:04:37.157Z,74.70
2019-03-02T19:07:05.078Z,74.82
2019-03-02T19:09:35.012Z,74.91
2019-03-02T19:12:04.317Z,75.12
2019-03-02T19:14:33.618Z,75.51
2019-03-02T19:17:02.799Z,75.73
2019-03-02T19:19:32.892Z,75.89
2019-03-02T19:22:02.214Z,76.32
2019-03-02T19:24:32.487Z,76.61
2019-03-02T19:27:01.702Z,76.72
2019-03-02T19:29:31.353Z,76.76
2019-03-02T19:32:01.093Z,76.96
2019-03-02T19:34:30.874Z,77.00
2019-03-02T19:37:00.175Z,77.27
2019-03-02T19:39:29.817Z,77.14
2019-03-02T19:41:59.176Z,76.97
2019-03-02T19:44:28.522Z,76.96
2019-03-02T19:46:57.734Z,76.88
2019-03-02T19:49:27.330Z,76.66
2019-03-02T19:51:56.710Z,76.46
2019-03-02T19:54:26.874Z,76.03
2019-03-02T19:56:56.150Z,75.97
2019-03-02T19:59:25.432Z,75.97
2019-03-02T20:01:54.743Z,75.90
2019-03-02T20:04:24.568Z,75.99
2019-03-02T20:06:54.698Z,75.91
2019-03-02T20:09:24.858Z,75.94
2019-03-02T20:11:54.610Z,75.88
2019-03-02T20:14:23.809Z,75.86
2019-03-02T20:16:52.981Z,76.10
2019-03-02T20:19:22.333Z,76.40
2019-03-02T20:21:51.821Z,76.52
2019-03-02T20:24:21.336Z,76.56
2019-03-02T20:26:50.605Z,76.71
2019-03-02T20:29:20.056Z,76.57
2019-03-02T20:31:50.424Z,76.33
2019-03-02T20:34:20.049Z,76.17
2019-03-02T20:36:49.683Z,76.42
2019-03-02T20:39:18.988Z,76.40
2019-03-02T20:41:48.413Z,76.37
2019-03-02T20:44:18.434Z,76.34
2019-03-02T20:46:47.830Z,76.45
2019-03-02T20:49:17.022Z,76.25
2019-03-02T20:51:46.716Z,76.14
2019-03-02T20:54:15.867Z,75.87
2019-03-02T20:56:45.885Z,75.78
2019-03-02T20:59:15.604Z,75.72
2019-03-02T21:01:44.851Z,75.80
2019-03-02T21:04:14.459Z,75.75
2019-03-02T21:06:44.177Z,75.70
2019-03-02T21:09:13.373Z,75.59
2019-03-02T21:11:43.014Z,75.48
2019-03-02T21:14:12.205Z,75.39
2019-03-02T21:16:42.147Z,75.33
2019-03-02T21:19:11.756Z,75.10
2019-03-02T21:21:40.946Z,74.98
2019-03-02T21:24:10.512Z,75.00
2019-03-02T21:26:40.438Z,74.95
2019-03-02T21:29:09.624Z,74.76
2019-03-02T21:31:38.830Z,74.54
2019-03-02T21:34:07.986Z,74.27
2019-03-02T21:36:37.564Z,74.07
2019-03-02T21:39:08.417Z,73.82
2019-03-02T21:41:38.077Z,73.63
2019-03-02T21:44:07.270Z,73.30
2019-03-02T21:46:36.469Z,72.94
2019-03-02T21:49:05.993Z,72.47
2019-03-02T21:51:35.150Z,71.84
2019-03-02T21:54:05.102Z,71.73
2019-03-02T21:56:34.987Z,70.65
2019-03-02T21:59:04.425Z,69.82
2019-03-02T22:01:33.651Z,66.92
2019-03-02T22:04:02.826Z,66.20
2019-03-02T22:06:32.089Z,66.01
2019-03-02T22:09:01.857Z,65.24
2019-03-02T22:11:31.004Z,64.72
2019-03-02T22:14:00.408Z,64.46
2019-03-02T22:16:30.250Z,64.58
2019-03-02T22:18:59.415Z,64.49
2019-03-02T22:21:28.638Z,64.91
2019-03-02T22:23:58.260Z,65.47
2019-03-02T22:26:27.909Z,65.88
2019-03-02T22:28:57.062Z,66.79
2019-03-02T22:31:26.862Z,67.20
2019-03-02T22:33:56.078Z,67.63
2019-03-02T22:36:25.257Z,67.82
2019-03-02T22:38:54.693Z,67.75
2019-03-02T22:41:24.040Z,67.19
2019-03-02T22:43:53.512Z,67.14
2019-03-02T22:46:22.706Z,67.13
2019-03-02T22:48:52.056Z,67.20
2019-03-02T22:51:21.890Z,67.13
2019-03-02T22:53:51.044Z,67.11
2019-03-02T22:56:20.363Z,66.75
2019-03-02T22:58:48.898Z,66.49
2019-03-02T23:01:58.120Z,66.29
2019-03-02T23:04:27.269Z,66.07
2019-03-02T23:06:56.865Z,65.77
2019-03-02T23:09:26.429Z,65.62
2019-03-02T23:11:55.934Z,65.33
2019-03-02T23:14:25.171Z,65.04
2019-03-02T23:16:55.309Z,65.13
2019-03-02T23:19:24.572Z,64.80
2019-03-02T23:21:54.144Z,65.00
2019-03-02T23:24:23.567Z,65.43
2019-03-02T23:26:52.779Z,65.75
2019-03-02T23:29:22.150Z,65.51
2019-03-02T23:31:51.675Z,65.49
2019-03-02T23:34:20.869Z,65.46
2019-03-02T23:36:50.387Z,65.46
2019-03-02T23:39:19.644Z,65.54
2019-03-02T23:41:49.191Z,65.69
2019-03-02T23:44:18.391Z,65.54
2019-03-02T23:46:47.575Z,65.45
2019-03-02T23:49:16.745Z,65.81
2019-03-02T23:51:46.320Z,65.90
2019-03-02T23:54:15.492Z,66.12
2019-03-02T23:56:45.120Z,66.31
2019-03-02T23:59:14.339Z,66.41
